sensor_id;sensor_type;location;lat;lon;timestamp;pressure;altitude;pressure_sealevel;temperature;humidity
7018;BME280;3549;42.162;24.726;2023-04-16T00:00:36;47730.50;;;-141.97;48.55
7018;BME280;3549;42.162;24.726;2023-04-16T00:03:01;47653.63;;;-141.97;48.42
7018;BME280;3549;42.162;24.726;2023-04-16T00:05:26;47603.66;;;-141.97;48.47
7018;BME280;3549;42.162;24.726;2023-04-16T00:07:52;47755.50;;;-141.97;48.67
7018;BME280;3549;42.162;24.726;2023-04-16T00:10:17;47599.81;;;-141.97;48.69
7018;BME280;3549;42.162;24.726;2023-04-16T00:12:43;47611.34;;;-141.97;48.65
7018;BME280;3549;42.162;24.726;2023-04-16T00:15:08;47619.03;;;-141.97;48.62
7018;BME280;3549;42.162;24.726;2023-04-16T00:17:34;47640.16;;;-141.97;48.93
7018;BME280;3549;42.162;24.726;2023-04-16T00:20:00;47588.28;;;-141.97;49.03
7018;BME280;3549;42.162;24.726;2023-04-16T00:22:25;47580.59;;;-141.97;48.95
7018;BME280;3549;42.162;24.726;2023-04-16T00:24:51;47738.19;;;-141.97;48.84
7018;BME280;3549;42.162;24.726;2023-04-16T00:27:17;47703.59;;;-141.97;48.96
7018;BME280;3549;42.162;24.726;2023-04-16T00:29:43;47624.78;;;-141.97;48.82
7018;BME280;3549;42.162;24.726;2023-04-16T00:32:09;47707.44;;;-141.97;48.92
7018;BME280;3549;42.162;24.726;2023-04-16T00:34:34;47715.13;;;-141.97;48.68
7018;BME280;3549;42.162;24.726;2023-04-16T00:37:00;47597.88;;;-141.97;48.79
7018;BME280;3549;42.162;24.726;2023-04-16T00:39:25;47436.44;;;-141.97;48.40
7018;BME280;3549;42.162;24.726;2023-04-16T00:41:51;47584.44;;;-141.97;49.01
7018;BME280;3549;42.162;24.726;2023-04-16T00:44:16;47703.59;;;-141.97;51.09
7018;BME280;3549;42.162;24.726;2023-04-16T00:46:42;47582.50;;;-141.97;52.17
7018;BME280;3549;42.162;24.726;2023-04-16T00:49:08;47632.47;;;-141.97;51.94
7018;BME280;3549;42.162;24.726;2023-04-16T00:51:34;47638.25;;;-141.97;51.40
7018;BME280;3549;42.162;24.726;2023-04-16T00:54:00;47509.47;;;-141.97;51.36
7018;BME280;3549;42.162;24.726;2023-04-16T00:56:26;47757.41;;;-141.97;51.59
7018;BME280;3549;42.162;24.726;2023-04-16T00:58:53;47544.06;;;-141.97;51.79
7018;BME280;3549;42.162;24.726;2023-04-16T01:01:19;47674.78;;;-141.97;52.60
7018;BME280;3549;42.162;24.726;2023-04-16T01:03:46;47570.97;;;-141.97;52.29
7018;BME280;3549;42.162;24.726;2023-04-16T01:06:12;47601.72;;;-141.97;52.50
7018;BME280;3549;42.162;24.726;2023-04-16T01:08:38;47699.75;;;-141.97;52.43
7018;BME280;3549;42.162;24.726;2023-04-16T01:11:04;47584.44;;;-141.97;53.15
7018;BME280;3549;42.162;24.726;2023-04-16T01:13:30;47607.50;;;-141.97;53.72
7018;BME280;3549;42.162;24.726;2023-04-16T01:15:56;47638.25;;;-141.97;54.31
7018;BME280;3549;42.162;24.726;2023-04-16T01:18:22;47630.56;;;-141.97;54.66
7018;BME280;3549;42.162;24.726;2023-04-16T01:20:49;47622.88;;;-141.97;55.17
7018;BME280;3549;42.162;24.726;2023-04-16T01:23:15;47624.78;;;-141.97;55.76
7018;BME280;3549;42.162;24.726;2023-04-16T01:25:43;47546.00;;;-141.97;57.72
7018;BME280;3549;42.162;24.726;2023-04-16T01:28:08;47722.81;;;-141.97;58.58
7018;BME280;3549;42.162;24.726;2023-04-16T01:30:34;47665.16;;;-141.97;58.98
7018;BME280;3549;42.162;24.726;2023-04-16T01:32:59;47649.78;;;-141.97;58.93
7018;BME280;3549;42.162;24.726;2023-04-16T01:35:25;47546.00;;;-141.97;59.40
7018;BME280;3549;42.162;24.726;2023-04-16T01:37:50;47588.28;;;-141.97;59.40
7018;BME280;3549;42.162;24.726;2023-04-16T01:40:17;47469.09;;;-141.97;58.82
7018;BME280;3549;42.162;24.726;2023-04-16T01:42:43;47503.69;;;-141.97;59.11
7018;BME280;3549;42.162;24.726;2023-04-16T01:45:09;47546.00;;;-141.97;58.67
7018;BME280;3549;42.162;24.726;2023-04-16T01:47:35;47630.56;;;-141.97;58.78
7018;BME280;3549;42.162;24.726;2023-04-16T01:50:01;47584.44;;;-141.97;58.54
7018;BME280;3549;42.162;24.726;2023-04-16T01:52:27;47730.50;;;-141.97;58.04
7018;BME280;3549;42.162;24.726;2023-04-16T01:54:52;47745.88;;;-141.97;57.93
7018;BME280;3549;42.162;24.726;2023-04-16T01:57:18;47713.22;;;-141.97;57.38
7018;BME280;3549;42.162;24.726;2023-04-16T01:59:43;47722.81;;;-141.97;56.95
7018;BME280;3549;42.162;24.726;2023-04-16T02:02:10;47688.22;;;-141.97;56.64
7018;BME280;3549;42.162;24.726;2023-04-16T02:04:39;47707.44;;;-141.97;56.28
7018;BME280;3549;42.162;24.726;2023-04-16T02:07:06;47630.56;;;-141.97;56.31
7018;BME280;3549;42.162;24.726;2023-04-16T02:09:35;47649.78;;;-141.97;56.80
7018;BME280;3549;42.162;24.726;2023-04-16T02:12:01;47634.41;;;-141.97;57.40
7018;BME280;3549;42.162;24.726;2023-04-16T02:14:28;47636.31;;;-141.97;57.34
7018;BME280;3549;42.162;24.726;2023-04-16T02:16:54;47628.63;;;-141.97;57.43
7018;BME280;3549;42.162;24.726;2023-04-16T02:19:19;47630.56;;;-141.97;58.27
7018;BME280;3549;42.162;24.726;2023-04-16T02:21:44;47676.69;;;-141.97;59.34
7018;BME280;3549;42.162;24.726;2023-04-16T02:24:10;47603.66;;;-141.97;59.58
7018;BME280;3549;42.162;24.726;2023-04-16T02:26:35;47626.72;;;-141.97;60.79
7018;BME280;3549;42.162;24.726;2023-04-16T02:29:01;47592.13;;;-141.97;60.61
7018;BME280;3549;42.162;24.726;2023-04-16T02:31:26;47601.72;;;-141.97;60.09
7018;BME280;3549;42.162;24.726;2023-04-16T02:33:53;47603.66;;;-141.97;60.02
7018;BME280;3549;42.162;24.726;2023-04-16T02:36:18;47653.63;;;-141.97;60.05
7018;BME280;3549;42.162;24.726;2023-04-16T02:38:44;47663.22;;;-141.97;60.50
7018;BME280;3549;42.162;24.726;2023-04-16T02:41:09;47634.41;;;-141.97;62.08
7018;BME280;3549;42.162;24.726;2023-04-16T02:43:34;47584.44;;;-141.97;63.26
7018;BME280;3549;42.162;24.726;2023-04-16T02:46:00;47622.88;;;-141.97;64.51
7018;BME280;3549;42.162;24.726;2023-04-16T02:48:25;47559.44;;;-141.97;66.09
7018;BME280;3549;42.162;24.726;2023-04-16T02:50:50;47613.25;;;-141.97;66.94
7018;BME280;3549;42.162;24.726;2023-04-16T02:53:16;47586.34;;;-141.97;66.44
7018;BME280;3549;42.162;24.726;2023-04-16T02:55:49;47617.09;;;-141.97;66.19
7018;BME280;3549;42.162;24.726;2023-04-16T02:58:16;47663.22;;;-141.97;65.79
7018;BME280;3549;42.162;24.726;2023-04-16T03:00:42;47553.69;;;-141.97;65.15
7018;BME280;3549;42.162;24.726;2023-04-16T03:03:07;47657.47;;;-141.97;64.57
7018;BME280;3549;42.162;24.726;2023-04-16T03:05:32;47640.16;;;-141.97;64.84
7018;BME280;3549;42.162;24.726;2023-04-16T03:07:58;47795.88;;;-141.97;66.30
7018;BME280;3549;42.162;24.726;2023-04-16T03:10:23;47570.97;;;-141.97;66.71
7018;BME280;3549;42.162;24.726;2023-04-16T03:12:49;47690.16;;;-141.97;66.45
7018;BME280;3549;42.162;24.726;2023-04-16T03:15:14;47659.38;;;-141.97;66.33
7018;BME280;3549;42.162;24.726;2023-04-16T03:17:40;47768.94;;;-141.97;66.25
7018;BME280;3549;42.162;24.726;2023-04-16T03:20:06;47599.81;;;-141.97;65.91
7018;BME280;3549;42.162;24.726;2023-04-16T03:22:31;47647.84;;;-141.97;65.53
7018;BME280;3549;42.162;24.726;2023-04-16T03:24:57;47626.72;;;-141.97;66.31
7018;BME280;3549;42.162;24.726;2023-04-16T03:27:22;47630.56;;;-141.97;66.08
7018;BME280;3549;42.162;24.726;2023-04-16T03:29:48;47620.94;;;-141.97;65.82
7018;BME280;3549;42.162;24.726;2023-04-16T03:32:13;47601.72;;;-141.97;65.53
7018;BME280;3549;42.162;24.726;2023-04-16T03:34:38;47586.34;;;-141.97;65.47
7018;BME280;3549;42.162;24.726;2023-04-16T03:37:04;47620.94;;;-141.97;65.23
7018;BME280;3549;42.162;24.726;2023-04-16T03:39:31;47615.19;;;-141.97;64.86
7018;BME280;3549;42.162;24.726;2023-04-16T03:41:56;47659.38;;;-141.97;65.45
7018;BME280;3549;42.162;24.726;2023-04-16T03:44:25;47503.69;;;-141.97;66.08
7018;BME280;3549;42.162;24.726;2023-04-16T03:46:55;47684.38;;;-141.97;65.79
7018;BME280;3549;42.162;24.726;2023-04-16T03:49:21;47682.47;;;-141.97;65.33
7018;BME280;3549;42.162;24.726;2023-04-16T03:51:47;47626.72;;;-141.97;64.97
7018;BME280;3549;42.162;24.726;2023-04-16T03:54:12;47484.47;;;-141.97;65.19
7018;BME280;3549;42.162;24.726;2023-04-16T03:56:41;47728.59;;;-141.97;65.06
7018;BME280;3549;42.162;24.726;2023-04-16T03:59:06;47569.06;;;-141.97;64.89
7018;BME280;3549;42.162;24.726;2023-04-16T04:01:32;47642.09;;;-141.97;64.81
7018;BME280;3549;42.162;24.726;2023-04-16T04:03:57;47617.09;;;-141.97;65.29
7018;BME280;3549;42.162;24.726;2023-04-16T04:06:23;47622.88;;;-141.97;65.44
7018;BME280;3549;42.162;24.726;2023-04-16T04:08:48;47569.06;;;-141.97;65.59
7018;BME280;3549;42.162;24.726;2023-04-16T04:11:13;47522.91;;;-141.97;65.18
7018;BME280;3549;42.162;24.726;2023-04-16T04:13:39;47601.72;;;-141.97;65.20
7018;BME280;3549;42.162;24.726;2023-04-16T04:16:04;47561.38;;;-141.97;64.97
7018;BME280;3549;42.162;24.726;2023-04-16T04:18:30;47742.03;;;-141.97;64.61
7018;BME280;3549;42.162;24.726;2023-04-16T04:20:56;47634.41;;;-141.97;64.57
7018;BME280;3549;42.162;24.726;2023-04-16T04:23:22;47634.41;;;-141.97;63.97
7018;BME280;3549;42.162;24.726;2023-04-16T04:25:48;47653.63;;;-141.97;63.71
7018;BME280;3549;42.162;24.726;2023-04-16T04:28:13;47615.19;;;-141.97;63.21
7018;BME280;3549;42.162;24.726;2023-04-16T04:30:38;47590.19;;;-141.97;63.41
7018;BME280;3549;42.162;24.726;2023-04-16T04:33:04;47640.16;;;-141.97;64.34
7018;BME280;3549;42.162;24.726;2023-04-16T04:35:29;47647.84;;;-141.97;64.56
7018;BME280;3549;42.162;24.726;2023-04-16T04:37:55;47634.41;;;-141.97;64.31
7018;BME280;3549;42.162;24.726;2023-04-16T04:40:20;47642.09;;;-141.97;63.46
7018;BME280;3549;42.162;24.726;2023-04-16T04:42:46;47611.34;;;-141.97;63.04
7018;BME280;3549;42.162;24.726;2023-04-16T04:45:11;47644.00;;;-141.97;62.88
7018;BME280;3549;42.162;24.726;2023-04-16T04:47:36;47611.34;;;-141.97;62.64
7018;BME280;3549;42.162;24.726;2023-04-16T04:50:02;47595.97;;;-141.97;62.35
7018;BME280;3549;42.162;24.726;2023-04-16T04:52:28;47649.78;;;-141.97;62.16
7018;BME280;3549;42.162;24.726;2023-04-16T04:54:53;47636.31;;;-141.97;63.24
7018;BME280;3549;42.162;24.726;2023-04-16T04:57:18;47636.31;;;-141.97;63.73
7018;BME280;3549;42.162;24.726;2023-04-16T04:59:44;47605.56;;;-141.97;63.76
7018;BME280;3549;42.162;24.726;2023-04-16T05:02:09;47619.03;;;-141.97;63.56
7018;BME280;3549;42.162;24.726;2023-04-16T05:04:35;47636.31;;;-141.97;63.39
7018;BME280;3549;42.162;24.726;2023-04-16T05:07:00;47672.84;;;-141.97;63.38
7018;BME280;3549;42.162;24.726;2023-04-16T05:09:26;47661.31;;;-141.97;63.13
7018;BME280;3549;42.162;24.726;2023-04-16T05:11:52;47699.75;;;-141.97;63.29
7018;BME280;3549;42.162;24.726;2023-04-16T05:14:17;47628.63;;;-141.97;63.03
7018;BME280;3549;42.162;24.726;2023-04-16T05:16:43;47592.13;;;-141.97;62.22
7018;BME280;3549;42.162;24.726;2023-04-16T05:19:08;47582.50;;;-141.97;62.55
7018;BME280;3549;42.162;24.726;2023-04-16T05:21:34;47647.84;;;-141.97;62.72
7018;BME280;3549;42.162;24.726;2023-04-16T05:23:59;47611.34;;;-141.97;62.88
7018;BME280;3549;42.162;24.726;2023-04-16T05:26:25;47638.25;;;-141.97;62.30
7018;BME280;3549;42.162;24.726;2023-04-16T05:28:50;47619.03;;;-141.97;61.94
7018;BME280;3549;42.162;24.726;2023-04-16T05:31:16;47628.63;;;-141.97;61.59
7018;BME280;3549;42.162;24.726;2023-04-16T05:33:41;47586.34;;;-141.97;61.64
7018;BME280;3549;42.162;24.726;2023-04-16T05:36:06;47653.63;;;-141.97;61.14
7018;BME280;3549;42.162;24.726;2023-04-16T05:38:32;47745.88;;;-141.97;60.32
7018;BME280;3549;42.162;24.726;2023-04-16T05:40:57;47636.31;;;-141.97;58.82
7018;BME280;3549;42.162;24.726;2023-04-16T05:43:23;47619.03;;;-141.97;57.77
7018;BME280;3549;42.162;24.726;2023-04-16T05:45:48;47624.78;;;-141.97;56.36
7018;BME280;3549;42.162;24.726;2023-04-16T05:48:14;47761.25;;;-141.97;56.36
7018;BME280;3549;42.162;24.726;2023-04-16T05:50:39;47638.25;;;-141.97;55.15
7018;BME280;3549;42.162;24.726;2023-04-16T05:53:06;47549.84;;;-141.97;54.78
7018;BME280;3549;42.162;24.726;2023-04-16T05:55:32;47595.97;;;-141.97;52.91
7018;BME280;3549;42.162;24.726;2023-04-16T05:57:57;47749.72;;;-141.97;52.86
7018;BME280;3549;42.162;24.726;2023-04-16T06:00:23;47661.31;;;-141.97;52.24
7018;BME280;3549;42.162;24.726;2023-04-16T06:02:49;47592.13;;;-141.97;50.51
7018;BME280;3549;42.162;24.726;2023-04-16T06:05:15;47588.28;;;-141.97;50.38
7018;BME280;3549;42.162;24.726;2023-04-16T06:07:41;47594.03;;;-141.97;49.31
7018;BME280;3549;42.162;24.726;2023-04-16T06:10:07;47574.81;;;-141.97;48.05
7018;BME280;3549;42.162;24.726;2023-04-16T06:12:32;47444.13;;;-141.97;49.86
7018;BME280;3549;42.162;24.726;2023-04-16T06:14:59;47538.28;;;-141.97;49.10
7018;BME280;3549;42.162;24.726;2023-04-16T06:17:25;47601.72;;;-141.97;48.77
7018;BME280;3549;42.162;24.726;2023-04-16T06:19:51;47617.09;;;-141.97;48.18
7018;BME280;3549;42.162;24.726;2023-04-16T06:22:17;47784.34;;;-141.97;47.84
7018;BME280;3549;42.162;24.726;2023-04-16T06:24:42;47574.81;;;-141.97;49.02
7018;BME280;3549;42.162;24.726;2023-04-16T06:27:08;47557.53;;;-141.97;48.58
7018;BME280;3549;42.162;24.726;2023-04-16T06:29:34;47617.09;;;-141.97;48.95
7018;BME280;3549;42.162;24.726;2023-04-16T06:32:00;47701.69;;;-141.97;49.01
7018;BME280;3549;42.162;24.726;2023-04-16T06:34:27;47605.56;;;-141.97;48.35
7018;BME280;3549;42.162;24.726;2023-04-16T06:36:52;47749.72;;;-141.97;49.33
7018;BME280;3549;42.162;24.726;2023-04-16T06:39:17;47484.47;;;-141.97;49.55
7018;BME280;3549;42.162;24.726;2023-04-16T06:41:46;47569.06;;;-141.97;49.36
7018;BME280;3549;42.162;24.726;2023-04-16T06:44:12;47559.44;;;-141.97;49.52
7018;BME280;3549;42.162;24.726;2023-04-16T06:46:38;47630.56;;;-141.97;49.08
7018;BME280;3549;42.162;24.726;2023-04-16T06:49:03;47619.03;;;-141.97;49.13
7018;BME280;3549;42.162;24.726;2023-04-16T06:51:28;47561.38;;;-141.97;49.42
7018;BME280;3549;42.162;24.726;2023-04-16T06:53:54;47559.44;;;-141.97;49.24
7018;BME280;3549;42.162;24.726;2023-04-16T06:56:20;47524.84;;;-141.97;49.39
7018;BME280;3549;42.162;24.726;2023-04-16T06:58:45;47611.34;;;-141.97;50.03
7018;BME280;3549;42.162;24.726;2023-04-16T07:01:11;47611.34;;;-141.97;48.88
7018;BME280;3549;42.162;24.726;2023-04-16T07:03:36;47549.84;;;-141.97;49.72
7018;BME280;3549;42.162;24.726;2023-04-16T07:06:02;47584.44;;;-141.97;48.22
7018;BME280;3549;42.162;24.726;2023-04-16T07:08:27;47496.00;;;-141.97;47.90
7018;BME280;3549;42.162;24.726;2023-04-16T07:10:53;47659.38;;;-141.97;50.00
7018;BME280;3549;42.162;24.726;2023-04-16T07:13:19;47480.63;;;-141.97;50.57
7018;BME280;3549;42.162;24.726;2023-04-16T07:15:46;47592.13;;;-141.97;49.54
7018;BME280;3549;42.162;24.726;2023-04-16T07:18:11;47524.84;;;-141.97;50.79
7018;BME280;3549;42.162;24.726;2023-04-16T07:20:36;47513.31;;;-141.97;49.57
7018;BME280;3549;42.162;24.726;2023-04-16T07:23:02;47609.41;;;-141.97;47.71
7018;BME280;3549;42.162;24.726;2023-04-16T07:25:27;47451.81;;;-141.97;48.34
7018;BME280;3549;42.162;24.726;2023-04-16T07:27:53;47617.09;;;-141.97;48.99
7018;BME280;3549;42.162;24.726;2023-04-16T07:30:18;47503.69;;;-141.97;48.20
7018;BME280;3549;42.162;24.726;2023-04-16T07:32:43;47630.56;;;-141.97;47.46
7018;BME280;3549;42.162;24.726;2023-04-16T07:35:09;47476.78;;;-141.97;47.45
7018;BME280;3549;42.162;24.726;2023-04-16T07:37:34;47555.59;;;-141.97;45.77
7018;BME280;3549;42.162;24.726;2023-04-16T07:39:59;47411.44;;;-141.97;45.43
7018;BME280;3549;42.162;24.726;2023-04-16T07:42:26;47561.38;;;-141.97;45.88
7018;BME280;3549;42.162;24.726;2023-04-16T07:44:52;47592.13;;;-141.97;46.59
7018;BME280;3549;42.162;24.726;2023-04-16T07:47:17;47695.91;;;-141.97;46.29
7018;BME280;3549;42.162;24.726;2023-04-16T07:49:43;47478.72;;;-141.97;45.64
7018;BME280;3549;42.162;24.726;2023-04-16T07:52:08;47507.53;;;-141.97;45.06
7018;BME280;3549;42.162;24.726;2023-04-16T07:54:33;47524.84;;;-141.97;44.08
7018;BME280;3549;42.162;24.726;2023-04-16T07:56:59;47465.25;;;-141.97;43.09
7018;BME280;3549;42.162;24.726;2023-04-16T07:59:25;47615.19;;;-141.97;42.80
7018;BME280;3549;42.162;24.726;2023-04-16T08:01:53;47680.53;;;-141.97;42.97
7018;BME280;3549;42.162;24.726;2023-04-16T08:04:19;47465.25;;;-141.97;42.31
7018;BME280;3549;42.162;24.726;2023-04-16T08:06:49;47590.19;;;-141.97;41.90
7018;BME280;3549;42.162;24.726;2023-04-16T08:09:15;47565.22;;;-141.97;41.82
7018;BME280;3549;42.162;24.726;2023-04-16T08:11:41;47632.47;;;-141.97;42.08
7018;BME280;3549;42.162;24.726;2023-04-16T08:14:07;47557.53;;;-141.97;41.85
7018;BME280;3549;42.162;24.726;2023-04-16T08:16:32;47574.81;;;-141.97;41.76
7018;BME280;3549;42.162;24.726;2023-04-16T08:18:58;47738.19;;;-141.97;41.65
7018;BME280;3549;42.162;24.726;2023-04-16T08:21:26;47534.44;;;-141.97;41.50
7018;BME280;3549;42.162;24.726;2023-04-16T08:23:52;47611.34;;;-141.97;42.75
7018;BME280;3549;42.162;24.726;2023-04-16T08:26:21;47534.44;;;-141.97;42.62
7018;BME280;3549;42.162;24.726;2023-04-16T08:28:46;47576.75;;;-141.97;42.00
7018;BME280;3549;42.162;24.726;2023-04-16T08:31:12;47484.47;;;-141.97;42.51
7018;BME280;3549;42.162;24.726;2023-04-16T08:33:39;47574.81;;;-141.97;42.06
7018;BME280;3549;42.162;24.726;2023-04-16T08:36:05;47488.31;;;-141.97;41.90
7018;BME280;3549;42.162;24.726;2023-04-16T08:38:31;47459.50;;;-141.97;42.54
7018;BME280;3549;42.162;24.726;2023-04-16T08:41:02;47578.66;;;-141.97;42.60
7018;BME280;3549;42.162;24.726;2023-04-16T08:43:32;47546.00;;;-141.97;42.78
7018;BME280;3549;42.162;24.726;2023-04-16T08:45:59;47570.97;;;-141.97;42.66
7018;BME280;3549;42.162;24.726;2023-04-16T08:48:28;47576.75;;;-141.97;42.53
7018;BME280;3549;42.162;24.726;2023-04-16T08:50:59;47547.91;;;-141.97;42.16
7018;BME280;3549;42.162;24.726;2023-04-16T08:53:31;47555.59;;;-141.97;41.38
7018;BME280;3549;42.162;24.726;2023-04-16T08:55:58;47553.69;;;-141.97;42.09
7018;BME280;3549;42.162;24.726;2023-04-16T08:58:28;47519.06;;;-141.97;42.42
7018;BME280;3549;42.162;24.726;2023-04-16T09:00:56;47745.88;;;-141.97;41.41
7018;BME280;3549;42.162;24.726;2023-04-16T09:03:21;47540.22;;;-141.97;40.51
7018;BME280;3549;42.162;24.726;2023-04-16T09:05:48;47544.06;;;-141.97;40.04
7018;BME280;3549;42.162;24.726;2023-04-16T09:08:13;47620.94;;;-141.97;39.82
7018;BME280;3549;42.162;24.726;2023-04-16T09:10:39;47480.63;;;-141.97;39.74
7018;BME280;3549;42.162;24.726;2023-04-16T09:13:04;47565.22;;;-141.97;39.12
7018;BME280;3549;42.162;24.726;2023-04-16T09:15:30;47559.44;;;-141.97;37.97
7018;BME280;3549;42.162;24.726;2023-04-16T09:17:56;47496.00;;;-141.97;38.20
7018;BME280;3549;42.162;24.726;2023-04-16T09:20:22;47726.66;;;-141.97;37.80
7018;BME280;3549;42.162;24.726;2023-04-16T09:22:47;47638.25;;;-141.97;37.86
7018;BME280;3549;42.162;24.726;2023-04-16T09:25:13;47572.91;;;-141.97;37.42
7018;BME280;3549;42.162;24.726;2023-04-16T09:27:39;47572.91;;;-141.97;37.25
7018;BME280;3549;42.162;24.726;2023-04-16T09:30:24;47561.38;;;-141.97;37.11
7018;BME280;3549;42.162;24.726;2023-04-16T09:32:51;47572.91;;;-141.97;37.09
7018;BME280;3549;42.162;24.726;2023-04-16T09:35:18;47611.34;;;-141.97;37.08
7018;BME280;3549;42.162;24.726;2023-04-16T09:37:54;47442.19;;;-141.97;36.84
7018;BME280;3549;42.162;24.726;2023-04-16T09:40:24;47409.53;;;-141.97;35.72
7018;BME280;3549;42.162;24.726;2023-04-16T09:42:51;47419.13;;;-141.97;36.88
7018;BME280;3549;42.162;24.726;2023-04-16T09:45:17;47492.16;;;-141.97;37.59
7018;BME280;3549;42.162;24.726;2023-04-16T09:47:44;47467.19;;;-141.97;37.37
7018;BME280;3549;42.162;24.726;2023-04-16T09:50:14;47501.78;;;-141.97;36.18
7018;BME280;3549;42.162;24.726;2023-04-16T09:52:42;47465.25;;;-141.97;36.13
7018;BME280;3549;42.162;24.726;2023-04-16T09:55:07;47398.00;;;-141.97;36.81
7018;BME280;3549;42.162;24.726;2023-04-16T09:57:36;47526.75;;;-141.97;36.97
7018;BME280;3549;42.162;24.726;2023-04-16T10:00:07;47572.91;;;-141.97;37.36
7018;BME280;3549;42.162;24.726;2023-04-16T10:02:33;47546.00;;;-141.97;37.58
7018;BME280;3549;42.162;24.726;2023-04-16T10:05:02;47736.28;;;-141.97;36.71
7018;BME280;3549;42.162;24.726;2023-04-16T10:07:30;47492.16;;;-141.97;36.82
7018;BME280;3549;42.162;24.726;2023-04-16T10:09:57;47688.22;;;-141.97;36.36
7018;BME280;3549;42.162;24.726;2023-04-16T10:12:23;47534.44;;;-141.97;37.09
7018;BME280;3549;42.162;24.726;2023-04-16T10:14:48;47649.78;;;-141.97;36.41
7018;BME280;3549;42.162;24.726;2023-04-16T10:17:15;47544.06;;;-141.97;36.68
7018;BME280;3549;42.162;24.726;2023-04-16T10:19:41;47546.00;;;-141.97;36.21
7018;BME280;3549;42.162;24.726;2023-04-16T10:22:06;47699.75;;;-141.97;36.34
7018;BME280;3549;42.162;24.726;2023-04-16T10:24:39;47507.53;;;-141.97;36.45
7018;BME280;3549;42.162;24.726;2023-04-16T10:27:21;47669.00;;;-141.97;36.13
7018;BME280;3549;42.162;24.726;2023-04-16T10:29:47;47501.78;;;-141.97;35.98
7018;BME280;3549;42.162;24.726;2023-04-16T10:32:14;47551.75;;;-141.97;35.49
7018;BME280;3549;42.162;24.726;2023-04-16T10:34:59;47540.22;;;-141.97;35.47
7018;BME280;3549;42.162;24.726;2023-04-16T10:37:41;47526.75;;;-141.97;34.95
7018;BME280;3549;42.162;24.726;2023-04-16T10:40:23;47580.59;;;-141.97;35.18
7018;BME280;3549;42.162;24.726;2023-04-16T10:42:58;47630.56;;;-141.97;35.44
7018;BME280;3549;42.162;24.726;2023-04-16T10:45:28;47640.16;;;-141.97;35.85
7018;BME280;3549;42.162;24.726;2023-04-16T10:47:55;47492.16;;;-141.97;36.35
7018;BME280;3549;42.162;24.726;2023-04-16T10:50:22;47734.34;;;-141.97;36.50
7018;BME280;3549;42.162;24.726;2023-04-16T10:52:47;47530.59;;;-141.97;36.46
7018;BME280;3549;42.162;24.726;2023-04-16T10:55:16;47519.06;;;-141.97;36.67
7018;BME280;3549;42.162;24.726;2023-04-16T10:57:41;47617.09;;;-141.97;36.35
7018;BME280;3549;42.162;24.726;2023-04-16T11:00:27;47547.91;;;-141.97;36.99
7018;BME280;3549;42.162;24.726;2023-04-16T11:02:53;47692.06;;;-141.97;37.04
7018;BME280;3549;42.162;24.726;2023-04-16T11:05:23;47536.38;;;-141.97;38.13
7018;BME280;3549;42.162;24.726;2023-04-16T11:07:49;47476.78;;;-141.97;37.52
7018;BME280;3549;42.162;24.726;2023-04-16T11:10:16;47559.44;;;-141.97;36.64
7018;BME280;3549;42.162;24.726;2023-04-16T11:12:45;47595.97;;;-141.97;36.21
7018;BME280;3549;42.162;24.726;2023-04-16T11:15:13;47620.94;;;-141.97;35.71
7018;BME280;3549;42.162;24.726;2023-04-16T11:20:20;47530.59;;;-141.97;37.51
7018;BME280;3549;42.162;24.726;2023-04-16T11:22:50;47461.41;;;-141.97;37.93
7018;BME280;3549;42.162;24.726;2023-04-16T11:25:23;47472.94;;;-141.97;38.15
7018;BME280;3549;42.162;24.726;2023-04-16T11:27:50;47494.09;;;-141.97;37.41
7018;BME280;3549;42.162;24.726;2023-04-16T11:30:17;47378.78;;;-141.97;37.38
7018;BME280;3549;42.162;24.726;2023-04-16T11:32:43;47563.28;;;-141.97;38.22
7018;BME280;3549;42.162;24.726;2023-04-16T11:35:18;47559.44;;;-141.97;39.30
7018;BME280;3549;42.162;24.726;2023-04-16T11:37:45;47561.38;;;-141.97;39.56
7018;BME280;3549;42.162;24.726;2023-04-16T11:40:11;47530.59;;;-141.97;39.70
7018;BME280;3549;42.162;24.726;2023-04-16T11:42:38;47569.06;;;-141.97;39.42
7018;BME280;3549;42.162;24.726;2023-04-16T11:45:09;47522.91;;;-141.97;39.56
7018;BME280;3549;42.162;24.726;2023-04-16T11:47:50;47524.84;;;-141.97;39.39
7018;BME280;3549;42.162;24.726;2023-04-16T11:50:24;47499.84;;;-141.97;38.26
7018;BME280;3549;42.162;24.726;2023-04-16T11:52:51;47559.44;;;-141.97;37.83
7018;BME280;3549;42.162;24.726;2023-04-16T11:55:18;47515.22;;;-141.97;38.95
7018;BME280;3549;42.162;24.726;2023-04-16T11:57:44;47484.47;;;-141.97;39.39
7018;BME280;3549;42.162;24.726;2023-04-16T12:00:10;47509.47;;;-141.97;39.19
7018;BME280;3549;42.162;24.726;2023-04-16T12:02:49;47526.75;;;-141.97;39.62
7018;BME280;3549;42.162;24.726;2023-04-16T12:08:03;47524.84;;;-141.97;40.23
7018;BME280;3549;42.162;24.726;2023-04-16T12:10:31;47553.69;;;-141.97;40.05
7018;BME280;3549;42.162;24.726;2023-04-16T12:13:13;47544.06;;;-141.97;40.19
7018;BME280;3549;42.162;24.726;2023-04-16T12:15:46;47730.50;;;-141.97;40.32
7018;BME280;3549;42.162;24.726;2023-04-16T12:18:12;47534.44;;;-141.97;40.69
7018;BME280;3549;42.162;24.726;2023-04-16T12:20:39;47549.84;;;-141.97;40.53
7018;BME280;3549;42.162;24.726;2023-04-16T12:23:08;47511.38;;;-141.97;41.69
7018;BME280;3549;42.162;24.726;2023-04-16T12:25:34;47563.28;;;-141.97;42.94
7018;BME280;3549;42.162;24.726;2023-04-16T12:27:59;47496.00;;;-141.97;43.36
7018;BME280;3549;42.162;24.726;2023-04-16T12:30:26;47565.22;;;-141.97;44.83
7018;BME280;3549;42.162;24.726;2023-04-16T12:33:12;47453.72;;;-141.97;46.77
7018;BME280;3549;42.162;24.726;2023-04-16T12:35:38;47430.66;;;-141.97;46.51
7018;BME280;3549;42.162;24.726;2023-04-16T12:38:05;47590.19;;;-141.97;47.56
7018;BME280;3549;42.162;24.726;2023-04-16T12:40:32;47538.28;;;-141.97;47.51
7018;BME280;3549;42.162;24.726;2023-04-16T12:42:58;47567.13;;;-141.97;48.68
7018;BME280;3549;42.162;24.726;2023-04-16T12:45:23;47576.75;;;-141.97;48.84
7018;BME280;3549;42.162;24.726;2023-04-16T12:47:49;47547.91;;;-141.97;48.92
7018;BME280;3549;42.162;24.726;2023-04-16T12:50:14;47540.22;;;-141.97;48.43
7018;BME280;3549;42.162;24.726;2023-04-16T12:52:40;47569.06;;;-141.97;47.41